Flight Track Log - Related Links

Times and Time Zones

All times are in EDT time to prevent confusion due to time zone crossing. See the N75AW flight status page for this flight to view local times or setup timezone preferences in your user account.

Time Position Orientation Groundspeed Altitude Reporting Facility
EDT Latitude Longitude Course Direction KTS MPH feet Rate Location/Type
Tue 05:02:46 PM 30.3072 -84.2592 154° Southeast 160 184 6,200  Level Jacksonville Center
Tue 05:03:46 PM 30.2806 -84.2181 127° Southeast 155 178 8,400 2,050 Climbing Jacksonville Center
Tue 05:04:46 PM 30.2517 -84.1839 134° Southeast 149 171 10,300 1,900 Climbing Jacksonville Center
Tue 05:05:46 PM 30.2164 -84.1569 147° Southeast 154 177 12,200 1,950 Climbing Jacksonville Center
Tue 05:06:00 PM 30.3441 -84.2244 148° Southeast  Level FlightAware Approximate
Tue 05:06:46 PM 30.1750 -84.1300 151° Southeast 166 191 14,200  Level Jacksonville Center
Tue 05:07:00 PM 30.2834 -84.1889 154° Southeast  Level FlightAware Approximate
Tue 05:07:46 PM 30.1356 -84.1006 147° Southeast 166 191 16,200  Level Jacksonville Center
Tue 05:08:00 PM 30.2221 -84.1548 154° Southeast  Level FlightAware Approximate
Tue 05:08:46 PM 30.0939 -84.0736 151° Southeast 171 197 18,100  Level Jacksonville Center
Tue 05:09:46 PM 30.0525 -84.0469 151° Southeast 171 197 19,700 1,350 Climbing Jacksonville Center
Tue 05:10:46 PM 30.0131 -84.0175 147° Southeast 171 197 20,800 700 Climbing Jacksonville Center
Tue 05:11:46 PM 29.9611 -83.9883 154° Southeast 187 215 21,100 100 Climbing Jacksonville Center
Tue 05:12:46 PM 29.8989 -83.9444 149° Southeast 225 259 21,000 -50 Descending Jacksonville Center
Tue 05:13:46 PM 29.8283 -83.9006 152° Southeast 258 297 21,000  Level Jacksonville Center
Tue 05:14:46 PM 29.7639 -83.8567 149° Southeast 272 313 21,000  Level Jacksonville Center
Tue 05:15:46 PM 29.6933 -83.8131 152° Southeast 283 326 21,000  Level Jacksonville Center
Tue 05:16:46 PM 29.6247 -83.7717 152° Southeast 283 326 21,000  Level Jacksonville Center
Tue 05:17:46 PM 29.5561 -83.7258 150° Southeast 283 326 21,000  Level Jacksonville Center
Tue 05:18:46 PM 29.4875 -83.6800 150° Southeast 283 326 21,000  Level Jacksonville Center
Tue 05:19:46 PM 29.4167 -83.6342 151° Southeast 288 331 21,000  Level Jacksonville Center
Tue 05:20:46 PM 29.3417 -83.6097 164° South 288 331 21,000  Level Jacksonville Center
Tue 05:21:46 PM 29.2667 -83.5900 167° South 283 326 21,000  Level Jacksonville Center
Tue 05:22:46 PM 29.1894 -83.5706 168° South 283 326 21,000  Level Jacksonville Center
Tue 05:23:46 PM 29.1125 -83.5486 166° South 283 326 21,000  Level Jacksonville Center
Tue 05:24:46 PM 29.0353 -83.5292 168° South 283 326 21,000  Level Jacksonville Center
Tue 05:25:46 PM 28.9581 -83.5119 169° South 283 326 21,000  Level Jacksonville Center
Tue 05:26:46 PM 28.8811 -83.4972 170° South 283 326 21,000  Level Jacksonville Center
Tue 05:27:46 PM 28.8039 -83.4778 168° South 283 326 21,000  Level Jacksonville Center
Tue 05:28:46 PM 28.7267 -83.4583 168° South 283 326 21,000  Level Jacksonville Center
Tue 05:29:46 PM 28.6517 -83.4461 172° South 278 320 21,000  Level Jacksonville Center
Tue 05:32:10 PM 28.4642 -83.4056 169° South 278 320 21,000  Level Miami Center
Tue 05:33:10 PM 28.3878 -83.3869 168° South 283 326 21,000  Level Miami Center
Tue 05:34:10 PM 28.3094 -83.3706 170° South 288 331 21,000  Level Miami Center
Tue 05:35:10 PM 28.2239 -83.3681 179° South 288 331 21,000  Level Miami Center
Tue 05:36:10 PM 28.1467 -83.3683 180° South 288 331 21,000  Level Miami Center
Tue 05:37:10 PM 28.0781 -83.3219 149° Southeast 274 315 21,000  Level Miami Center
Tue 05:38:10 PM 28.0133 -83.2736 147° Southeast 279 321 21,000  Level Miami Center
Tue 05:39:10 PM 27.9444 -83.2322 152° Southeast 279 321 21,000  Level Miami Center
Tue 05:40:10 PM 27.8775 -83.1861 149° Southeast 279 321 21,000  Level Miami Center
Tue 05:41:10 PM 27.8128 -83.1428 149° Southeast 279 321 21,000  Level Miami Center
Tue 05:42:10 PM 27.7458 -83.0967 149° Southeast 279 321 21,000  Level Miami Center
Tue 05:43:10 PM 27.6789 -83.0533 150° Southeast 279 321 21,000  Level Miami Center
Tue 05:44:10 PM 27.6139 -83.0122 151° Southeast 279 321 21,000  Level Miami Center
Tue 05:45:10 PM 27.5450 -82.9664 149° Southeast 279 321 21,000 -450 Level Miami Center
Tue 05:46:10 PM 27.4758 -82.9208 150° Southeast 279 321 20,100 -1,000 Descending Miami Center
Tue 05:47:10 PM 27.4028 -82.8725 150° Southeast 290 334 19,000 -950 Descending Miami Center
Tue 05:48:10 PM 27.3278 -82.8242 150° Southeast 297 342 18,200 -750 Descending Miami Center
Tue 05:49:10 PM 27.2606 -82.7808 150° Southeast 297 342 17,500 -750 Descending Miami Center
Tue 05:50:10 PM 27.1914 -82.7356 150° Southeast 297 342 16,700 -750 Descending Miami Center
Tue 05:51:10 PM 27.1222 -82.6922 151° Southeast 292 336 16,000 -650 Descending Miami Center
Tue 05:52:10 PM 27.0533 -82.6469 150° Southeast 292 336 15,400 -650 Descending Miami Center
Tue 05:53:10 PM 26.9842 -82.6014 150° Southeast 287 330 14,700 -650 Descending Miami Center
Tue 05:54:10 PM 26.9189 -82.5586 150° Southeast 281 323 14,100 -700 Descending Miami Center
Tue 05:55:10 PM 26.8497 -82.5158 151° Southeast 281 323 13,300 -850 Descending Miami Center
Tue 05:56:10 PM 26.7844 -82.4731 150° Southeast 281 323 12,400 -900 Descending Miami Center
Tue 05:57:10 PM 26.7194 -82.4306 150° Southeast 281 323 11,500 -900 Descending Miami Center
Tue 05:58:10 PM 26.6542 -82.3903 151° Southeast 276 318 10,600 -700 Descending Miami Center
Tue 05:59:10 PM 26.5972 -82.3528 150° Southeast 264 304 10,100 -300 Descending Miami Center
Tue 06:00:10 PM 26.5422 -82.3153 149° Southeast 247 284 10,000 -50 Descending Miami Center
Tue 06:01:10 PM 26.4853 -82.2756 148° Southeast 247 284 10,000 -400 Level Miami Center
Tue 06:02:10 PM 26.4281 -82.2383 150° Southeast 242 278 9,200 -800 Descending Miami Center
Tue 06:04:00 PM 26.3209 -82.1464 142° Southeast  Level FlightAware Approximate
Tue 06:11:00 PM 26.1524 -81.7756 66° East  Level Estimated
Tue 06:12:00 PM 26.1524 -81.7756 66° East  Level Estimated
Tue 06:13:00 PM 26.1524 -81.7756 66° East  Level Estimated
Tue 06:14:00 PM 26.1524 -81.7756 66° East  Level Estimated
Tue 06:15:00 PM 26.1524 -81.7756 66° East  Level Estimated
Tue 06:16:00 PM 26.1524 -81.7756 66° East  Level Estimated
Tue 06:17:00 PM 26.1524 -81.7756 66° East  Level Estimated
Tue 06:18:00 PM 26.1524 -81.7756 66° East  Level Estimated
Tue 06:19:00 PM 26.1524 -81.7756 66° East  Level Estimated
Tue 06:20:00 PM 26.1524 -81.7756 66° East  Level Estimated
Tue 06:21:00 PM 26.1524 -81.7756 66° East  Level Estimated
Tue 06:22:00 PM 26.1524 -81.7756 66° East  Level Estimated
Tue 06:23:00 PM 26.1524 -81.7756 66° East  Level Estimated
Tue 06:24:00 PM 26.1524 -81.7756 66° East  Level Estimated
Tue 06:25:00 PM 26.1524 -81.7756 66° East  Level Estimated

Login

Don't have an account? Register now (free) for customized features, flight alerts, and more!